sensor_id;sensor_type;location;lat;lon;timestamp;pressure;altitude;pressure_sealevel;temperature;humidity
11605;BME280;5858;43.076;25.626;2023-04-29T00:00:41;99473.78;;;6.43;89.88
11605;BME280;5858;43.076;25.626;2023-04-29T00:03:08;99524.16;;;6.62;90.26
11605;BME280;5858;43.076;25.626;2023-04-29T00:05:35;99528.47;;;6.46;92.30
11605;BME280;5858;43.076;25.626;2023-04-29T00:08:03;99420.78;;;5.88;91.36
11605;BME280;5858;43.076;25.626;2023-04-29T00:10:30;99515.19;;;6.28;91.83
11605;BME280;5858;43.076;25.626;2023-04-29T00:12:58;99509.19;;;6.26;92.01
11605;BME280;5858;43.076;25.626;2023-04-29T00:15:25;99494.31;;;6.33;92.13
11605;BME280;5858;43.076;25.626;2023-04-29T00:17:52;99511.06;;;6.51;90.75
11605;BME280;5858;43.076;25.626;2023-04-29T00:20:20;99537.38;;;6.72;90.79
11605;BME280;5858;43.076;25.626;2023-04-29T00:22:47;99494.31;;;6.33;90.56
11605;BME280;5858;43.076;25.626;2023-04-29T00:25:14;99475.56;;;6.35;90.33
11605;BME280;5858;43.076;25.626;2023-04-29T00:27:41;99446.34;;;6.17;90.49
11605;BME280;5858;43.076;25.626;2023-04-29T00:30:10;99458.44;;;6.02;90.98
11605;BME280;5858;43.076;25.626;2023-04-29T00:32:37;99463.84;;;6.10;92.28
11605;BME280;5858;43.076;25.626;2023-04-29T00:35:05;99460.81;;;6.05;91.35
11605;BME280;5858;43.076;25.626;2023-04-29T00:37:32;99468.13;;;5.65;93.91
11605;BME280;5858;43.076;25.626;2023-04-29T00:39:59;99531.34;;;6.35;92.47
11605;BME280;5858;43.076;25.626;2023-04-29T00:42:27;99434.47;;;5.93;91.40
11605;BME280;5858;43.076;25.626;2023-04-29T00:44:54;99520.78;;;6.60;90.65
11605;BME280;5858;43.076;25.626;2023-04-29T00:47:23;99489.28;;;6.30;90.31
11605;BME280;5858;43.076;25.626;2023-04-29T00:49:50;99495.66;;;6.37;90.14
11605;BME280;5858;43.076;25.626;2023-04-29T00:52:18;99321.53;;;5.54;89.57
11605;BME280;5858;43.076;25.626;2023-04-29T00:54:45;99424.09;;;6.18;89.47
11605;BME280;5858;43.076;25.626;2023-04-29T00:57:14;99502.59;;;6.66;89.56
11605;BME280;5858;43.076;25.626;2023-04-29T00:59:41;99435.25;;;6.21;89.60
11605;BME280;5858;43.076;25.626;2023-04-29T01:02:10;99382.09;;;5.86;89.73
11605;BME280;5858;43.076;25.626;2023-04-29T01:04:38;99307.13;;;5.56;88.93
11605;BME280;5858;43.076;25.626;2023-04-29T01:07:11;99357.72;;;5.55;89.84
11605;BME280;5858;43.076;25.626;2023-04-29T01:09:52;99437.59;;;6.07;90.27
11605;BME280;5858;43.076;25.626;2023-04-29T01:12:25;99493.41;;;6.24;90.31
11605;BME280;5858;43.076;25.626;2023-04-29T01:15:03;99379.53;;;5.49;91.01
11605;BME280;5858;43.076;25.626;2023-04-29T01:17:35;99371.34;;;5.15;92.18
11605;BME280;5858;43.076;25.626;2023-04-29T01:20:06;99427.06;;;5.42;92.78
11605;BME280;5858;43.076;25.626;2023-04-29T01:22:34;99373.22;;;5.04;93.91
11605;BME280;5858;43.076;25.626;2023-04-29T01:25:04;99478.06;;;5.63;93.56
11605;BME280;5858;43.076;25.626;2023-04-29T01:27:33;99366.03;;;5.15;93.03
11605;BME280;5858;43.076;25.626;2023-04-29T01:30:07;99317.03;;;4.54;92.49
11605;BME280;5858;43.076;25.626;2023-04-29T01:32:46;99444.06;;;5.49;93.53
11605;BME280;5858;43.076;25.626;2023-04-29T01:35:29;99476.84;;;5.85;92.03
11605;BME280;5858;43.076;25.626;2023-04-29T01:38:09;99431.88;;;5.56;92.28
11605;BME280;5858;43.076;25.626;2023-04-29T01:40:43;99382.41;;;5.10;93.05
11605;BME280;5858;43.076;25.626;2023-04-29T01:43:14;99405.66;;;5.16;93.41
11605;BME280;5858;43.076;25.626;2023-04-29T01:45:42;99437.44;;;5.35;92.78
11605;BME280;5858;43.076;25.626;2023-04-29T01:48:10;99473.88;;;5.33;93.40
11605;BME280;5858;43.076;25.626;2023-04-29T01:50:37;99478.50;;;5.31;95.39
11605;BME280;5858;43.076;25.626;2023-04-29T01:53:04;99407.03;;;4.93;95.31
11605;BME280;5858;43.076;25.626;2023-04-29T01:55:32;99378.66;;;5.03;94.58
11605;BME280;5858;43.076;25.626;2023-04-29T01:58:01;99427.66;;;5.36;92.85
11605;BME280;5858;43.076;25.626;2023-04-29T02:00:28;99357.16;;;4.79;94.47
11605;BME280;5858;43.076;25.626;2023-04-29T02:02:55;99469.03;;;5.56;94.44
11605;BME280;5858;43.076;25.626;2023-04-29T02:05:22;99469.13;;;5.64;93.26
11605;BME280;5858;43.076;25.626;2023-04-29T02:07:49;99473.06;;;5.60;92.98
11605;BME280;5858;43.076;25.626;2023-04-29T02:10:16;99461.66;;;5.50;93.38
11605;BME280;5858;43.076;25.626;2023-04-29T02:12:44;99474.44;;;5.64;92.95
11605;BME280;5858;43.076;25.626;2023-04-29T02:15:12;99473.19;;;5.68;92.71
11605;BME280;5858;43.076;25.626;2023-04-29T02:17:39;99415.75;;;5.40;91.83
11605;BME280;5858;43.076;25.626;2023-04-29T02:20:07;99480.09;;;5.79;91.72
11605;BME280;5858;43.076;25.626;2023-04-29T02:22:34;99430.50;;;5.52;91.37
11605;BME280;5858;43.076;25.626;2023-04-29T02:25:02;99416.75;;;5.39;91.59
11605;BME280;5858;43.076;25.626;2023-04-29T02:27:29;99500.66;;;5.40;93.34
11605;BME280;5858;43.076;25.626;2023-04-29T02:29:56;99431.00;;;5.38;93.54
11605;BME280;5858;43.076;25.626;2023-04-29T02:32:24;99460.03;;;5.67;91.92
11605;BME280;5858;43.076;25.626;2023-04-29T02:34:51;99390.50;;;5.36;91.50
11605;BME280;5858;43.076;25.626;2023-04-29T02:37:18;99436.53;;;5.72;90.49
11605;BME280;5858;43.076;25.626;2023-04-29T02:39:46;99438.38;;;5.72;90.47
11605;BME280;5858;43.076;25.626;2023-04-29T02:42:13;99444.50;;;5.45;92.83
11605;BME280;5858;43.076;25.626;2023-04-29T02:44:40;99426.00;;;5.35;92.58
11605;BME280;5858;43.076;25.626;2023-04-29T02:47:07;99411.16;;;5.42;91.81
11605;BME280;5858;43.076;25.626;2023-04-29T02:49:35;99397.50;;;5.37;91.38
11605;BME280;5858;43.076;25.626;2023-04-29T02:52:02;99413.75;;;5.52;90.85
11605;BME280;5858;43.076;25.626;2023-04-29T02:54:29;99390.88;;;5.23;91.51
11605;BME280;5858;43.076;25.626;2023-04-29T02:56:56;99460.03;;;5.40;92.15
11605;BME280;5858;43.076;25.626;2023-04-29T02:59:24;99367.47;;;4.72;92.82
11605;BME280;5858;43.076;25.626;2023-04-29T03:01:51;99391.00;;;5.22;92.30
11605;BME280;5858;43.076;25.626;2023-04-29T03:04:18;99333.44;;;4.67;91.46
11605;BME280;5858;43.076;25.626;2023-04-29T03:06:47;99354.66;;;4.67;92.54
11605;BME280;5858;43.076;25.626;2023-04-29T03:09:14;99438.63;;;5.23;92.32
11605;BME280;5858;43.076;25.626;2023-04-29T03:11:41;99439.88;;;4.82;93.46
11605;BME280;5858;43.076;25.626;2023-04-29T03:14:08;99346.69;;;4.30;94.16
11605;BME280;5858;43.076;25.626;2023-04-29T03:16:35;99434.94;;;4.97;93.68
11605;BME280;5858;43.076;25.626;2023-04-29T03:19:03;99455.81;;;5.10;93.67
11605;BME280;5858;43.076;25.626;2023-04-29T03:21:32;99442.63;;;4.90;93.71
11605;BME280;5858;43.076;25.626;2023-04-29T03:24:03;99436.13;;;4.65;94.70
11605;BME280;5858;43.076;25.626;2023-04-29T03:26:35;99413.75;;;4.87;93.86
11605;BME280;5858;43.076;25.626;2023-04-29T03:29:02;99453.41;;;5.16;93.41
11605;BME280;5858;43.076;25.626;2023-04-29T03:31:29;99426.75;;;4.71;93.71
11605;BME280;5858;43.076;25.626;2023-04-29T03:33:56;99402.22;;;4.79;93.28
11605;BME280;5858;43.076;25.626;2023-04-29T03:36:23;99392.41;;;4.89;93.02
11605;BME280;5858;43.076;25.626;2023-04-29T03:38:50;99386.66;;;4.93;92.14
11605;BME280;5858;43.076;25.626;2023-04-29T03:41:19;99410.97;;;5.16;91.15
11605;BME280;5858;43.076;25.626;2023-04-29T03:43:48;99409.13;;;4.89;92.23
11605;BME280;5858;43.076;25.626;2023-04-29T03:46:15;99431.22;;;4.80;93.54
11605;BME280;5858;43.076;25.626;2023-04-29T03:48:42;99412.25;;;4.75;94.44
11605;BME280;5858;43.076;25.626;2023-04-29T03:51:09;99472.25;;;5.23;93.84
11605;BME280;5858;43.076;25.626;2023-04-29T03:53:37;99465.72;;;5.45;92.94
11605;BME280;5858;43.076;25.626;2023-04-29T03:56:05;99462.34;;;5.80;91.14
11605;BME280;5858;43.076;25.626;2023-04-29T03:58:33;99444.28;;;5.83;90.83
11605;BME280;5858;43.076;25.626;2023-04-29T04:01:00;99493.16;;;6.71;89.25
11605;BME280;5858;43.076;25.626;2023-04-29T04:03:28;99496.69;;;7.57;84.57
11605;BME280;5858;43.076;25.626;2023-04-29T04:05:55;99461.41;;;8.14;79.98
11605;BME280;5858;43.076;25.626;2023-04-29T04:08:22;99489.09;;;9.19;77.49
11605;BME280;5858;43.076;25.626;2023-04-29T04:10:49;99436.34;;;9.68;73.28
11605;BME280;5858;43.076;25.626;2023-04-29T04:13:16;99495.50;;;10.58;67.95
11605;BME280;5858;43.076;25.626;2023-04-29T04:15:49;99444.47;;;10.59;65.30
11605;BME280;5858;43.076;25.626;2023-04-29T04:18:17;99466.72;;;10.97;64.00
11605;BME280;5858;43.076;25.626;2023-04-29T04:20:43;99500.09;;;11.10;63.00
11605;BME280;5858;43.076;25.626;2023-04-29T04:23:11;99489.72;;;10.92;63.42
11605;BME280;5858;43.076;25.626;2023-04-29T04:25:44;99526.69;;;11.11;63.94
11605;BME280;5858;43.076;25.626;2023-04-29T04:28:11;99495.81;;;11.00;63.46
11605;BME280;5858;43.076;25.626;2023-04-29T04:30:38;99441.06;;;10.51;63.27
11605;BME280;5858;43.076;25.626;2023-04-29T04:33:11;99421.19;;;10.22;64.31
11605;BME280;5858;43.076;25.626;2023-04-29T04:35:38;99433.81;;;10.74;64.52
11605;BME280;5858;43.076;25.626;2023-04-29T04:38:05;99504.41;;;11.92;61.87
11605;BME280;5858;43.076;25.626;2023-04-29T04:40:39;99335.94;;;11.45;56.70
11605;BME280;5858;43.076;25.626;2023-04-29T04:43:08;99503.84;;;12.54;58.08
11605;BME280;5858;43.076;25.626;2023-04-29T04:45:41;99467.94;;;12.55;57.31
11605;BME280;5858;43.076;25.626;2023-04-29T04:48:25;99435.97;;;12.60;57.00
11605;BME280;5858;43.076;25.626;2023-04-29T04:50:55;99502.91;;;13.11;55.22
11605;BME280;5858;43.076;25.626;2023-04-29T04:53:22;99465.44;;;13.03;55.45
11605;BME280;5858;43.076;25.626;2023-04-29T04:55:49;99454.88;;;12.74;53.63
11605;BME280;5858;43.076;25.626;2023-04-29T04:58:16;99457.09;;;12.91;54.97
11605;BME280;5858;43.076;25.626;2023-04-29T05:00:43;99482.25;;;13.33;54.98
11605;BME280;5858;43.076;25.626;2023-04-29T05:03:11;99472.09;;;13.29;54.65
11605;BME280;5858;43.076;25.626;2023-04-29T05:05:39;99430.16;;;13.34;54.38
11605;BME280;5858;43.076;25.626;2023-04-29T05:08:06;99447.88;;;13.63;53.08
11605;BME280;5858;43.076;25.626;2023-04-29T05:10:37;99505.47;;;14.30;50.73
11605;BME280;5858;43.076;25.626;2023-04-29T05:13:04;99483.31;;;14.34;49.79
11605;BME280;5858;43.076;25.626;2023-04-29T05:15:31;99414.38;;;14.27;49.14
11605;BME280;5858;43.076;25.626;2023-04-29T05:17:58;99452.97;;;14.87;49.34
11605;BME280;5858;43.076;25.626;2023-04-29T05:20:25;99488.22;;;15.18;47.40
11605;BME280;5858;43.076;25.626;2023-04-29T05:22:54;99492.56;;;14.86;46.50
11605;BME280;5858;43.076;25.626;2023-04-29T05:25:21;99479.63;;;14.42;47.89
11605;BME280;5858;43.076;25.626;2023-04-29T05:27:48;99418.69;;;13.60;48.95
11605;BME280;5858;43.076;25.626;2023-04-29T05:30:16;99445.13;;;13.98;51.00
11605;BME280;5858;43.076;25.626;2023-04-29T05:32:43;99375.53;;;13.75;51.12
11605;BME280;5858;43.076;25.626;2023-04-29T05:35:10;99488.28;;;14.31;49.63
11605;BME280;5858;43.076;25.626;2023-04-29T05:37:37;99442.78;;;13.81;50.71
11605;BME280;5858;43.076;25.626;2023-04-29T05:40:07;99480.31;;;14.03;50.96
11605;BME280;5858;43.076;25.626;2023-04-29T05:42:34;99492.00;;;14.23;50.49
11605;BME280;5858;43.076;25.626;2023-04-29T05:45:06;99433.28;;;13.79;51.11
11605;BME280;5858;43.076;25.626;2023-04-29T05:47:33;99374.56;;;13.41;53.55
11605;BME280;5858;43.076;25.626;2023-04-29T05:50:00;99402.50;;;13.47;52.60
11605;BME280;5858;43.076;25.626;2023-04-29T05:52:27;99406.00;;;13.41;51.57
11605;BME280;5858;43.076;25.626;2023-04-29T05:54:55;99501.84;;;13.62;53.15
11605;BME280;5858;43.076;25.626;2023-04-29T05:57:23;99455.56;;;13.32;55.27
11605;BME280;5858;43.076;25.626;2023-04-29T05:59:50;99363.88;;;12.57;54.73
11605;BME280;5858;43.076;25.626;2023-04-29T06:02:19;99431.41;;;13.10;56.68
11605;BME280;5858;43.076;25.626;2023-04-29T06:04:46;99436.06;;;13.58;53.97
11605;BME280;5858;43.076;25.626;2023-04-29T06:07:13;99427.34;;;14.03;51.43
11605;BME280;5858;43.076;25.626;2023-04-29T06:09:47;99419.19;;;14.84;49.06
11605;BME280;5858;43.076;25.626;2023-04-29T06:12:16;99422.56;;;15.70;48.53
11605;BME280;5858;43.076;25.626;2023-04-29T06:14:45;99412.97;;;16.19;44.17
11605;BME280;5858;43.076;25.626;2023-04-29T06:17:12;99482.53;;;16.55;41.66
11605;BME280;5858;43.076;25.626;2023-04-29T06:19:39;99439.84;;;16.39;42.82
11605;BME280;5858;43.076;25.626;2023-04-29T06:22:06;99372.97;;;16.10;42.85
11605;BME280;5858;43.076;25.626;2023-04-29T06:24:33;99415.28;;;16.16;44.07
11605;BME280;5858;43.076;25.626;2023-04-29T06:27:00;99455.22;;;16.38;44.37
11605;BME280;5858;43.076;25.626;2023-04-29T06:29:28;99383.34;;;16.06;44.03
11605;BME280;5858;43.076;25.626;2023-04-29T06:31:57;99452.81;;;16.62;44.15
11605;BME280;5858;43.076;25.626;2023-04-29T06:34:24;99424.34;;;16.28;45.40
11605;BME280;5858;43.076;25.626;2023-04-29T06:36:51;99446.38;;;16.25;44.92
11605;BME280;5858;43.076;25.626;2023-04-29T06:39:18;99453.03;;;16.22;46.31
11605;BME280;5858;43.076;25.626;2023-04-29T06:41:45;99428.13;;;15.82;46.29
11605;BME280;5858;43.076;25.626;2023-04-29T06:44:12;99458.63;;;15.83;46.51
11605;BME280;5858;43.076;25.626;2023-04-29T06:46:41;99337.84;;;15.27;48.43
11605;BME280;5858;43.076;25.626;2023-04-29T06:49:10;99436.09;;;16.09;47.80
11605;BME280;5858;43.076;25.626;2023-04-29T06:51:37;99417.38;;;16.14;46.50
11605;BME280;5858;43.076;25.626;2023-04-29T06:54:04;99434.16;;;16.22;47.62
11605;BME280;5858;43.076;25.626;2023-04-29T06:56:31;99378.41;;;15.58;46.42
11605;BME280;5858;43.076;25.626;2023-04-29T06:58:58;99431.50;;;15.71;48.30
11605;BME280;5858;43.076;25.626;2023-04-29T07:01:25;99384.19;;;15.55;48.39
11605;BME280;5858;43.076;25.626;2023-04-29T07:03:52;99369.69;;;15.50;47.00
11605;BME280;5858;43.076;25.626;2023-04-29T07:06:20;99367.44;;;15.40;46.76
11605;BME280;5858;43.076;25.626;2023-04-29T07:08:47;99329.16;;;15.25;46.69
11605;BME280;5858;43.076;25.626;2023-04-29T07:11:14;99370.91;;;15.54;48.05
11605;BME280;5858;43.076;25.626;2023-04-29T07:13:41;99415.03;;;15.86;46.44
11605;BME280;5858;43.076;25.626;2023-04-29T07:16:14;99378.63;;;15.63;47.20
11605;BME280;5858;43.076;25.626;2023-04-29T07:18:42;99385.00;;;15.56;46.83
11605;BME280;5858;43.076;25.626;2023-04-29T07:21:09;99293.72;;;15.21;46.30
11605;BME280;5858;43.076;25.626;2023-04-29T07:23:38;99382.34;;;16.00;46.19
11605;BME280;5858;43.076;25.626;2023-04-29T07:26:09;99385.28;;;16.30;45.91
11605;BME280;5858;43.076;25.626;2023-04-29T07:28:36;99317.66;;;16.19;46.75
11605;BME280;5858;43.076;25.626;2023-04-29T07:31:08;99339.94;;;16.64;44.04
11605;BME280;5858;43.076;25.626;2023-04-29T07:33:37;99310.31;;;16.51;42.65
11605;BME280;5858;43.076;25.626;2023-04-29T07:36:04;99383.09;;;16.95;40.52
11605;BME280;5858;43.076;25.626;2023-04-29T07:38:32;99338.50;;;16.61;40.95
11605;BME280;5858;43.076;25.626;2023-04-29T07:41:00;99385.19;;;16.93;42.27
11605;BME280;5858;43.076;25.626;2023-04-29T07:43:29;99306.28;;;16.66;40.95
11605;BME280;5858;43.076;25.626;2023-04-29T07:45:56;99345.22;;;16.77;36.47
11605;BME280;5858;43.076;25.626;2023-04-29T07:48:23;99361.53;;;16.64;34.28
11605;BME280;5858;43.076;25.626;2023-04-29T07:50:50;99394.66;;;16.84;35.73
11605;BME280;5858;43.076;25.626;2023-04-29T07:53:17;99396.06;;;16.87;36.31
11605;BME280;5858;43.076;25.626;2023-04-29T07:55:44;99365.97;;;16.83;37.54
11605;BME280;5858;43.076;25.626;2023-04-29T07:58:17;99348.28;;;17.06;36.72
11605;BME280;5858;43.076;25.626;2023-04-29T08:00:44;99353.53;;;17.19;35.61
11605;BME280;5858;43.076;25.626;2023-04-29T08:03:12;99380.38;;;17.57;35.35
11605;BME280;5858;43.076;25.626;2023-04-29T08:05:39;99378.63;;;17.44;35.19
11605;BME280;5858;43.076;25.626;2023-04-29T08:08:07;99403.06;;;17.56;35.49
11605;BME280;5858;43.076;25.626;2023-04-29T08:10:37;99223.66;;;16.52;34.27
11605;BME280;5858;43.076;25.626;2023-04-29T08:13:07;99275.50;;;16.86;34.69
11605;BME280;5858;43.076;25.626;2023-04-29T08:15:48;99377.72;;;17.14;34.96
11605;BME280;5858;43.076;25.626;2023-04-29T08:18:28;99278.50;;;16.78;37.90
11605;BME280;5858;43.076;25.626;2023-04-29T08:20:57;99264.53;;;16.37;33.58
11605;BME280;5858;43.076;25.626;2023-04-29T08:23:24;99308.22;;;16.78;34.22
11605;BME280;5858;43.076;25.626;2023-04-29T08:25:52;99390.88;;;17.28;36.59
11605;BME280;5858;43.076;25.626;2023-04-29T08:28:22;99330.94;;;17.13;36.36
11605;BME280;5858;43.076;25.626;2023-04-29T08:30:51;99367.28;;;17.54;37.68
11605;BME280;5858;43.076;25.626;2023-04-29T08:33:18;99360.28;;;17.65;36.08
11605;BME280;5858;43.076;25.626;2023-04-29T08:35:46;99337.66;;;17.41;35.87
11605;BME280;5858;43.076;25.626;2023-04-29T08:38:13;99350.00;;;17.37;36.86
11605;BME280;5858;43.076;25.626;2023-04-29T08:40:42;99293.31;;;17.12;35.99
11605;BME280;5858;43.076;25.626;2023-04-29T08:43:11;99217.34;;;16.40;35.07
11605;BME280;5858;43.076;25.626;2023-04-29T08:45:40;99346.84;;;17.21;35.83
11605;BME280;5858;43.076;25.626;2023-04-29T08:48:15;99333.53;;;17.38;35.86
11605;BME280;5858;43.076;25.626;2023-04-29T08:50:48;99242.69;;;17.00;35.16
11605;BME280;5858;43.076;25.626;2023-04-29T08:53:16;99201.94;;;16.84;36.98
11605;BME280;5858;43.076;25.626;2023-04-29T08:55:46;99199.97;;;17.09;35.99
11605;BME280;5858;43.076;25.626;2023-04-29T08:58:14;99300.44;;;18.03;34.50
11605;BME280;5858;43.076;25.626;2023-04-29T09:00:43;99347.66;;;18.60;36.35
11605;BME280;5858;43.076;25.626;2023-04-29T09:03:16;99253.72;;;18.07;33.00
11605;BME280;5858;43.076;25.626;2023-04-29T09:05:45;99287.16;;;18.36;36.39
11605;BME280;5858;43.076;25.626;2023-04-29T09:08:14;99269.50;;;18.10;32.32
11605;BME280;5858;43.076;25.626;2023-04-29T09:10:45;99313.91;;;18.44;33.90
11605;BME280;5858;43.076;25.626;2023-04-29T09:13:22;99345.16;;;18.47;34.03
11605;BME280;5858;43.076;25.626;2023-04-29T09:15:57;99298.59;;;18.27;32.90
11605;BME280;5858;43.076;25.626;2023-04-29T09:18:45;99322.97;;;18.38;33.56
11605;BME280;5858;43.076;25.626;2023-04-29T09:21:14;99234.03;;;17.58;33.67
11605;BME280;5858;43.076;25.626;2023-04-29T09:23:41;99245.84;;;17.46;32.90
11605;BME280;5858;43.076;25.626;2023-04-29T09:26:08;99315.06;;;17.83;33.79
11605;BME280;5858;43.076;25.626;2023-04-29T09:28:35;99338.22;;;17.68;33.47
11605;BME280;5858;43.076;25.626;2023-04-29T09:31:04;99187.56;;;17.02;34.35
11605;BME280;5858;43.076;25.626;2023-04-29T09:36:39;99319.28;;;17.98;33.65
11605;BME280;5858;43.076;25.626;2023-04-29T09:39:08;99282.00;;;17.81;34.71
11605;BME280;5858;43.076;25.626;2023-04-29T09:41:39;99298.75;;;17.90;34.08
11605;BME280;5858;43.076;25.626;2023-04-29T09:44:07;99233.78;;;17.30;34.10
11605;BME280;5858;43.076;25.626;2023-04-29T09:46:35;99288.63;;;17.37;33.34
11605;BME280;5858;43.076;25.626;2023-04-29T09:49:03;99323.22;;;17.47;33.65
11605;BME280;5858;43.076;25.626;2023-04-29T09:51:30;99222.50;;;17.03;33.71
11605;BME280;5858;43.076;25.626;2023-04-29T09:54:19;99170.97;;;16.98;33.84
11605;BME280;5858;43.076;25.626;2023-04-29T09:56:48;99298.44;;;17.98;33.51
11605;BME280;5858;43.076;25.626;2023-04-29T09:59:16;99278.66;;;17.98;32.93
11605;BME280;5858;43.076;25.626;2023-04-29T10:01:43;99287.63;;;18.10;33.44
11605;BME280;5858;43.076;25.626;2023-04-29T10:04:10;99277.75;;;18.27;33.05
11605;BME280;5858;43.076;25.626;2023-04-29T10:06:40;99292.13;;;18.28;32.68
11605;BME280;5858;43.076;25.626;2023-04-29T10:09:12;99264.72;;;17.94;32.00
11605;BME280;5858;43.076;25.626;2023-04-29T10:11:41;99205.63;;;17.79;32.82
11605;BME280;5858;43.076;25.626;2023-04-29T10:14:11;99295.19;;;18.31;31.67
11605;BME280;5858;43.076;25.626;2023-04-29T10:16:47;99262.44;;;18.09;31.44
11605;BME280;5858;43.076;25.626;2023-04-29T10:19:20;99276.91;;;18.03;31.55
11605;BME280;5858;43.076;25.626;2023-04-29T10:21:53;99177.63;;;17.44;31.81
11605;BME280;5858;43.076;25.626;2023-04-29T10:24:24;99219.53;;;17.53;31.72
11605;BME280;5858;43.076;25.626;2023-04-29T10:26:52;99223.47;;;17.39;32.46
11605;BME280;5858;43.076;25.626;2023-04-29T10:29:21;99212.28;;;17.35;32.09
11605;BME280;5858;43.076;25.626;2023-04-29T10:31:49;99217.38;;;17.43;32.37
11605;BME280;5858;43.076;25.626;2023-04-29T10:34:17;99278.56;;;17.74;33.11
11605;BME280;5858;43.076;25.626;2023-04-29T10:36:46;99275.34;;;17.66;31.92
11605;BME280;5858;43.076;25.626;2023-04-29T10:39:22;99258.13;;;17.30;31.63
11605;BME280;5858;43.076;25.626;2023-04-29T10:41:53;99272.16;;;17.39;31.85
11605;BME280;5858;43.076;25.626;2023-04-29T10:44:20;99190.50;;;17.00;31.92
11605;BME280;5858;43.076;25.626;2023-04-29T10:46:48;99282.09;;;17.75;31.98
11605;BME280;5858;43.076;25.626;2023-04-29T10:49:15;99260.78;;;17.67;31.94
11605;BME280;5858;43.076;25.626;2023-04-29T10:51:43;99275.06;;;17.85;32.95
11605;BME280;5858;43.076;25.626;2023-04-29T10:54:12;99261.38;;;17.69;31.09
11605;BME280;5858;43.076;25.626;2023-04-29T10:56:43;99182.31;;;17.37;31.24
11605;BME280;5858;43.076;25.626;2023-04-29T10:59:14;99266.00;;;17.91;31.54
11605;BME280;5858;43.076;25.626;2023-04-29T11:01:49;99227.44;;;17.66;31.06
11605;BME280;5858;43.076;25.626;2023-04-29T11:04:17;99254.94;;;17.81;31.94
11605;BME280;5858;43.076;25.626;2023-04-29T11:06:46;99200.59;;;17.23;30.55
11605;BME280;5858;43.076;25.626;2023-04-29T11:09:24;99263.63;;;17.72;31.16
11605;BME280;5858;43.076;25.626;2023-04-29T11:12:00;99266.97;;;17.97;32.33
11605;BME280;5858;43.076;25.626;2023-04-29T11:14:32;99237.75;;;17.76;31.16
11605;BME280;5858;43.076;25.626;2023-04-29T11:17:02;99226.50;;;18.02;32.35
11605;BME280;5858;43.076;25.626;2023-04-29T11:19:33;99230.03;;;18.14;31.46
11605;BME280;5858;43.076;25.626;2023-04-29T11:22:08;99269.25;;;18.23;30.30
11605;BME280;5858;43.076;25.626;2023-04-29T11:24:36;99240.44;;;17.76;30.57
11605;BME280;5858;43.076;25.626;2023-04-29T11:27:17;99271.72;;;18.13;31.72
11605;BME280;5858;43.076;25.626;2023-04-29T11:29:44;99210.44;;;17.77;30.80
11605;BME280;5858;43.076;25.626;2023-04-29T11:32:12;99176.56;;;17.75;31.29
11605;BME280;5858;43.076;25.626;2023-04-29T11:34:39;99274.25;;;18.50;30.41
11605;BME280;5858;43.076;25.626;2023-04-29T11:37:06;99259.16;;;18.54;31.22
11605;BME280;5858;43.076;25.626;2023-04-29T11:39:33;99261.06;;;18.65;29.45
11605;BME280;5858;43.076;25.626;2023-04-29T11:42:02;99217.56;;;18.37;29.53
11605;BME280;5858;43.076;25.626;2023-04-29T11:44:32;99236.53;;;18.60;29.84
11605;BME280;5858;43.076;25.626;2023-04-29T11:47:03;99251.72;;;18.38;30.10
11605;BME280;5858;43.076;25.626;2023-04-29T11:49:30;99216.75;;;18.48;31.07
11605;BME280;5858;43.076;25.626;2023-04-29T11:51:58;99153.25;;;18.32;30.56
11605;BME280;5858;43.076;25.626;2023-04-29T11:54:25;99227.66;;;18.88;30.02
11605;BME280;5858;43.076;25.626;2023-04-29T11:56:53;99166.78;;;18.44;31.49
11605;BME280;5858;43.076;25.626;2023-04-29T11:59:21;99241.25;;;18.76;29.42
11605;BME280;5858;43.076;25.626;2023-04-29T12:01:50;99194.94;;;18.31;29.83
11605;BME280;5858;43.076;25.626;2023-04-29T12:04:17;99205.91;;;18.36;30.04
11605;BME280;5858;43.076;25.626;2023-04-29T12:06:45;99160.06;;;18.35;30.59
11605;BME280;5858;43.076;25.626;2023-04-29T12:09:12;99223.22;;;18.70;29.48
11605;BME280;5858;43.076;25.626;2023-04-29T12:11:40;99190.47;;;18.37;29.23
11605;BME280;5858;43.076;25.626;2023-04-29T12:14:07;99161.03;;;18.17;30.08
11605;BME280;5858;43.076;25.626;2023-04-29T12:16:34;99181.53;;;18.24;30.09
11605;BME280;5858;43.076;25.626;2023-04-29T12:19:04;99192.38;;;18.48;30.56
11605;BME280;5858;43.076;25.626;2023-04-29T12:21:33;99141.84;;;18.30;29.62
11605;BME280;5858;43.076;25.626;2023-04-29T12:24:03;99150.53;;;18.32;29.43
11605;BME280;5858;43.076;25.626;2023-04-29T12:26:30;99154.78;;;18.28;29.50
11605;BME280;5858;43.076;25.626;2023-04-29T12:29:01;99214.47;;;18.80;31.02
11605;BME280;5858;43.076;25.626;2023-04-29T12:31:32;99209.41;;;18.95;30.42
11605;BME280;5858;43.076;25.626;2023-04-29T12:34:04;99196.09;;;18.82;30.38
11605;BME280;5858;43.076;25.626;2023-04-29T12:36:31;99200.19;;;18.84;30.45
11605;BME280;5858;43.076;25.626;2023-04-29T12:38:59;99137.06;;;18.61;29.61
11605;BME280;5858;43.076;25.626;2023-04-29T12:41:36;99099.03;;;18.44;29.25
11605;BME280;5858;43.076;25.626;2023-04-29T12:44:05;99187.38;;;18.80;29.61
11605;BME280;5858;43.076;25.626;2023-04-29T12:46:36;99190.19;;;18.85;29.66
11605;BME280;5858;43.076;25.626;2023-04-29T12:49:05;99160.69;;;18.88;30.01
11605;BME280;5858;43.076;25.626;2023-04-29T12:51:32;99106.69;;;18.59;28.79
11605;BME280;5858;43.076;25.626;2023-04-29T12:54:00;99130.34;;;18.75;29.41
11605;BME280;5858;43.076;25.626;2023-04-29T12:56:28;99185.03;;;19.12;29.19
11605;BME280;5858;43.076;25.626;2023-04-29T12:58:56;99157.66;;;18.85;29.17
11605;BME280;5858;43.076;25.626;2023-04-29T13:01:23;99181.09;;;18.91;28.92
11605;BME280;5858;43.076;25.626;2023-04-29T13:03:50;99058.47;;;18.20;29.19
11605;BME280;5858;43.076;25.626;2023-04-29T13:06:19;99042.25;;;17.97;29.78
11605;BME280;5858;43.076;25.626;2023-04-29T13:08:46;99148.94;;;18.83;30.54
11605;BME280;5858;43.076;25.626;2023-04-29T13:11:13;99075.13;;;18.41;30.34
11605;BME280;5858;43.076;25.626;2023-04-29T13:13:40;99113.63;;;18.66;30.48